Time;durP1;ratioP1;P1;durP2;ratioP2;P2;SDS_P1;SDS_P2;PMS_P1;PMS_P2;Temp;Humidity;BMP_temperature;BMP_pressure;BME280_temperature;BME280_humidity;BME280_pressure;Samples;Min_cycle;Max_cycle;Signal;HPM_P1;HPM_P2
2023/02/08 00:00:40;;;;;;;1.23;0.77;;;;;;;;;;5087198;28;20044;-75
2023/02/08 00:03:11;;;;;;;2.25;0.90;;;;;;;;;;5087128;28;20419;-75
2023/02/08 00:05:41;;;;;;;1.95;0.73;;;;;;;;;;5087392;28;20047;-74
2023/02/08 00:08:11;;;;;;;8.80;0.85;;;;;;;;;;5069652;28;20418;-75
2023/02/08 00:10:43;;;;;;;7.97;1.23;;;;;;;;;;5087374;28;20044;-75
2023/02/08 00:13:13;;;;;;;3.13;1.00;;;;;;;;;;5087194;28;20044;-75
2023/02/08 00:15:46;;;;;;;6.95;0.95;;;;;;;;;;5087014;28;20075;-75
2023/02/08 00:19:01;;;;;;;7.68;0.90;;;;;;;;;;5085045;28;20644;-74
2023/02/08 00:21:34;;;;;;;4.22;0.93;;;;;;;;;;5085385;28;20063;-73
2023/02/08 00:24:07;;;;;;;3.60;1.13;;;;;;;;;;5086453;28;20047;-73
2023/02/08 00:26:38;;;;;;;5.25;0.80;;;;;;;;;;5086730;28;20502;-73
2023/02/08 00:29:09;;;;;;;9.32;0.70;;;;;;;;;;5087061;28;20059;-74
2023/02/08 00:31:39;;;;;;;6.25;0.80;;;;;;;;;;5086641;28;20047;-74
2023/02/08 00:34:10;;;;;;;5.55;0.95;;;;;;;;;;5086505;28;20054;-74
2023/02/08 00:36:51;;;;;;;2.70;1.02;;;;;;;;;;5086694;28;20055;-74
2023/02/08 00:39:23;;;;;;;5.70;1.08;;;;;;;;;;5087026;28;20040;-74
2023/02/08 00:41:53;;;;;;;5.00;0.93;;;;;;;;;;5087314;28;20383;-74
2023/02/08 00:44:23;;;;;;;4.05;1.08;;;;;;;;;;5086722;28;20055;-74
2023/02/08 00:46:54;;;;;;;7.75;1.02;;;;;;;;;;5086378;28;20505;-75
2023/02/08 00:49:25;;;;;;;7.25;1.02;;;;;;;;;;5087025;28;20055;-74
2023/02/08 00:51:56;;;;;;;3.20;0.85;;;;;;;;;;5069582;28;20028;-74
2023/02/08 00:54:25;;;;;;;3.67;0.93;;;;;;;;;;5068162;28;20047;-74
2023/02/08 00:56:56;;;;;;;15.70;5.70;;;;;;;;;;5086647;28;20056;-74
2023/02/08 00:59:26;;;;;;;25.35;10.13;;;;;;;;;;5086211;28;20048;-75
2023/02/08 01:01:57;;;;;;;6.43;1.60;;;;;;;;;;5086997;28;20052;-74
2023/02/08 01:04:36;;;;;;;3.38;0.90;;;;;;;;;;5071886;28;20407;-75
2023/02/08 01:07:07;;;;;;;4.13;0.82;;;;;;;;;;5090762;28;20056;-75
2023/02/08 01:09:38;;;;;;;2.90;1.02;;;;;;;;;;5055884;28;20052;-75
2023/02/08 01:12:09;;;;;;;3.25;0.98;;;;;;;;;;5072066;28;20052;-75
2023/02/08 01:14:40;;;;;;;5.45;1.15;;;;;;;;;;5089630;28;20862;-76
2023/02/08 01:17:13;;;;;;;6.97;1.05;;;;;;;;;;5090618;28;20410;-75
2023/02/08 01:19:43;;;;;;;8.00;1.35;;;;;;;;;;5090941;28;20048;-74
2023/02/08 01:22:13;;;;;;;5.18;0.98;;;;;;;;;;5071560;28;20055;-73
2023/02/08 01:24:44;;;;;;;3.50;0.88;;;;;;;;;;5090638;28;20047;-74
2023/02/08 01:27:14;;;;;;;8.10;1.00;;;;;;;;;;5089842;28;20491;-76
2023/02/08 01:29:44;;;;;;;6.40;0.90;;;;;;;;;;5070700;28;20052;-74
2023/02/08 01:32:14;;;;;;;5.35;1.08;;;;;;;;;;5069595;28;20055;-73
2023/02/08 01:34:44;;;;;;;7.80;1.20;;;;;;;;;;5086772;28;20051;-75
2023/02/08 01:37:14;;;;;;;1.15;0.77;;;;;;;;;;5079709;28;20039;-74
2023/02/08 01:39:48;;;;;;;4.50;1.00;;;;;;;;;;5099210;28;20047;-74
2023/02/08 01:45:22;;;;;;;1.40;0.80;;;;;;;;;;5075393;28;20044;-75
2023/02/08 01:48:01;;;;;;;1.90;0.80;;;;;;;;;;5089864;28;20051;-74
2023/02/08 01:50:40;;;;;;;4.35;1.23;;;;;;;;;;5090251;28;20052;-74
2023/02/08 01:53:12;;;;;;;3.72;1.00;;;;;;;;;;5090550;28;20044;-73
2023/02/08 01:55:47;;;;;;;5.63;1.00;;;;;;;;;;5071137;28;20418;-73
2023/02/08 01:58:19;;;;;;;4.18;0.98;;;;;;;;;;5070989;28;20063;-75
2023/02/08 02:00:50;;;;;;;4.38;1.02;;;;;;;;;;5070920;28;20063;-73
2023/02/08 02:03:23;;;;;;;3.92;1.10;;;;;;;;;;5089819;28;20052;-73
2023/02/08 02:06:02;;;;;;;3.35;0.82;;;;;;;;;;5089787;28;20048;-74
2023/02/08 02:08:32;;;;;;;4.22;1.17;;;;;;;;;;5071048;28;20059;-75
2023/02/08 02:11:03;;;;;;;7.95;1.20;;;;;;;;;;5089634;28;20044;-74
2023/02/08 02:13:36;;;;;;;6.22;1.10;;;;;;;;;;5072114;28;20040;-74
2023/02/08 02:16:07;;;;;;;7.18;1.10;;;;;;;;;;5089233;28;20047;-73
2023/02/08 02:18:39;;;;;;;3.70;1.13;;;;;;;;;;5089544;28;20512;-75
2023/02/08 02:21:35;;;;;;;3.15;0.95;;;;;;;;;;5089251;28;20058;-75
2023/02/08 02:24:14;;;;;;;3.63;1.00;;;;;;;;;;5089563;28;20051;-73
2023/02/08 02:26:44;;;;;;;3.00;1.15;;;;;;;;;;5089018;28;20402;-74
2023/02/08 02:29:32;;;;;;;4.07;1.10;;;;;;;;;;5088872;28;20530;-76
2023/02/08 02:32:52;;;;;;;2.92;1.05;;;;;;;;;;5088990;28;20063;-75
2023/02/08 02:35:28;;;;;;;6.07;1.05;;;;;;;;;;5089245;28;20044;-75
2023/02/08 02:38:12;;;;;;;1.92;1.00;;;;;;;;;;5089494;28;20410;-75
2023/02/08 02:40:55;;;;;;;4.22;1.23;;;;;;;;;;5089593;28;20044;-75
2023/02/08 02:43:47;;;;;;;3.70;1.20;;;;;;;;;;5070251;28;20056;-74
2023/02/08 02:46:39;;;;;;;5.70;1.30;;;;;;;;;;5089156;28;20052;-74
2023/02/08 02:49:15;;;;;;;4.90;1.35;;;;;;;;;;5089192;28;20048;-78
2023/02/08 02:52:01;;;;;;;4.80;1.55;;;;;;;;;;5088962;28;20052;-75
2023/02/08 02:54:48;;;;;;;3.35;1.20;;;;;;;;;;5088543;28;20044;-75
2023/02/08 02:57:43;;;;;;;2.67;1.10;;;;;;;;;;5088910;28;20044;-74
2023/02/08 03:00:23;;;;;;;3.35;1.50;;;;;;;;;;5086685;28;20056;-75
2023/02/08 03:02:54;;;;;;;5.70;2.53;;;;;;;;;;5088747;28;20591;-74
2023/02/08 03:05:28;;;;;;;7.55;1.27;;;;;;;;;;5088950;28;20043;-74
2023/02/08 03:08:30;;;;;;;2.38;1.20;;;;;;;;;;5088932;28;20055;-74
2023/02/08 03:11:06;;;;;;;4.43;1.40;;;;;;;;;;5080745;28;20056;-74
2023/02/08 03:14:07;;;;;;;3.00;1.60;;;;;;;;;;5088603;28;20516;-74
2023/02/08 03:16:43;;;;;;;4.10;2.00;;;;;;;;;;5088286;28;20051;-73
2023/02/08 03:19:50;;;;;;;5.50;1.50;;;;;;;;;;5049014;28;20556;-73
2023/02/08 03:22:58;;;;;;;6.20;1.50;;;;;;;;;;5088198;28;20052;-74
2023/02/08 03:25:51;;;;;;;6.80;1.75;;;;;;;;;;5088411;28;20063;-74
2023/02/08 03:28:45;;;;;;;7.22;1.73;;;;;;;;;;5087640;28;20063;-75
2023/02/08 03:31:30;;;;;;;5.28;1.70;;;;;;;;;;5088504;28;20040;-74
2023/02/08 03:34:24;;;;;;;6.45;1.73;;;;;;;;;;5088657;28;20048;-73
2023/02/08 03:37:04;;;;;;;;;;;;;;;;;;5088694;28;20051;-74
2023/02/08 03:39:37;;;;;;;5.70;1.73;;;;;;;;;;5087473;28;19924;-73
2023/02/08 03:42:16;;;;;;;5.32;1.80;;;;;;;;;;5069936;28;20063;-74
2023/02/08 03:44:54;;;;;;;5.45;1.90;;;;;;;;;;5088087;28;20048;-74
2023/02/08 03:47:33;;;;;;;5.13;1.70;;;;;;;;;;5087815;28;20063;-74
2023/02/08 03:50:07;;;;;;;4.25;1.67;;;;;;;;;;5087701;28;20520;-74
2023/02/08 03:52:40;;;;;;;7.65;1.77;;;;;;;;;;5087428;28;20043;-76
2023/02/08 03:55:17;;;;;;;12.63;1.65;;;;;;;;;;5087948;28;20040;-73
2023/02/08 03:57:48;;;;;;;5.65;1.88;;;;;;;;;;5085784;28;20079;-73
2023/02/08 04:00:20;;;;;;;3.42;2.00;;;;;;;;;;5087659;28;20514;-74
2023/02/08 04:03:23;;;;;;;4.47;2.10;;;;;;;;;;5087507;28;20639;-74
2023/02/08 04:05:54;;;;;;;4.80;1.85;;;;;;;;;;5103060;28;20040;-73
2023/02/08 04:08:25;;;;;;;9.07;1.95;;;;;;;;;;5086879;28;20062;-73
2023/02/08 04:10:57;;;;;;;4.18;1.88;;;;;;;;;;5087263;28;20052;-72
2023/02/08 04:13:28;;;;;;;7.70;1.88;;;;;;;;;;5087329;28;20047;-74
2023/02/08 04:15:58;;;;;;;7.22;1.80;;;;;;;;;;5087686;28;20052;-72
2023/02/08 04:18:28;;;;;;;6.28;2.00;;;;;;;;;;5087007;28;20098;-73
2023/02/08 04:20:58;;;;;;;2.42;1.85;;;;;;;;;;5087418;28;20040;-73
2023/02/08 04:23:31;;;;;;;3.75;1.77;;;;;;;;;;5087536;28;20040;-73
2023/02/08 04:26:02;;;;;;;4.63;1.88;;;;;;;;;;5087256;28;20048;-72
2023/02/08 04:28:34;;;;;;;7.60;2.22;;;;;;;;;;5087055;28;20071;-74
2023/02/08 04:31:04;;;;;;;3.60;2.20;;;;;;;;;;5069459;28;20048;-75
2023/02/08 04:33:35;;;;;;;3.75;2.10;;;;;;;;;;5087188;28;20489;-73
2023/02/08 04:36:06;;;;;;;7.78;2.20;;;;;;;;;;5086765;28;20044;-73
2023/02/08 04:38:36;;;;;;;5.20;2.20;;;;;;;;;;5086902;28;20067;-74
2023/02/08 04:41:07;;;;;;;7.50;2.10;;;;;;;;;;5086638;28;20054;-74
2023/02/08 04:43:38;;;;;;;6.07;2.15;;;;;;;;;;5087191;28;20043;-73
2023/02/08 04:46:08;;;;;;;10.32;2.15;;;;;;;;;;5087465;28;20048;-74
2023/02/08 04:48:39;;;;;;;4.13;2.00;;;;;;;;;;5068917;28;20040;-73
2023/02/08 04:51:09;;;;;;;2.95;2.10;;;;;;;;;;5087090;28;20486;-74
2023/02/08 04:53:39;;;;;;;3.83;2.10;;;;;;;;;;5086975;28;20047;-73
2023/02/08 04:56:08;;;;;;;5.35;2.15;;;;;;;;;;5086870;28;20118;-72
2023/02/08 04:58:41;;;;;;;4.90;1.92;;;;;;;;;;5086875;28;20063;-75
2023/02/08 05:01:12;;;;;;;12.73;2.10;;;;;;;;;;5086795;28;20076;-74
2023/02/08 05:03:54;;;;;;;10.80;2.15;;;;;;;;;;5087061;28;20405;-72
2023/02/08 05:06:24;;;;;;;9.00;2.20;;;;;;;;;;5086945;28;20071;-74
2023/02/08 05:08:55;;;;;;;5.20;1.90;;;;;;;;;;5086144;28;20047;-73
2023/02/08 05:11:25;;;;;;;6.70;2.15;;;;;;;;;;5101197;28;20482;-74
2023/02/08 05:13:56;;;;;;;8.55;2.08;;;;;;;;;;5084928;28;20552;-74
2023/02/08 05:16:27;;;;;;;6.75;2.20;;;;;;;;;;5086172;28;20048;-73
2023/02/08 05:18:57;;;;;;;3.20;1.83;;;;;;;;;;5086500;28;20051;-72
2023/02/08 05:21:28;;;;;;;6.00;2.08;;;;;;;;;;5086643;28;20055;-74
2023/02/08 05:24:00;;;;;;;5.35;2.08;;;;;;;;;;5086134;28;20040;-74
2023/02/08 05:26:31;;;;;;;3.85;1.92;;;;;;;;;;5085997;28;20048;-72
2023/02/08 05:29:01;;;;;;;3.80;2.08;;;;;;;;;;5086312;28;20059;-72
2023/02/08 05:31:32;;;;;;;3.78;2.00;;;;;;;;;;5086588;28;20044;-72
2023/02/08 05:34:04;;;;;;;5.50;2.10;;;;;;;;;;5068452;28;20052;-72
2023/02/08 05:36:38;;;;;;;12.70;2.45;;;;;;;;;;5086217;28;20417;-74
2023/02/08 05:39:09;;;;;;;5.28;2.40;;;;;;;;;;5086257;28;20043;-72
2023/02/08 05:41:40;;;;;;;6.30;2.20;;;;;;;;;;5086611;28;20051;-72
2023/02/08 05:44:10;;;;;;;4.88;2.03;;;;;;;;;;5086692;28;20398;-73
2023/02/08 05:46:54;;;;;;;5.03;1.83;;;;;;;;;;5084893;28;20044;-73
2023/02/08 05:49:24;;;;;;;4.40;1.90;;;;;;;;;;5085117;28;20052;-73
2023/02/08 05:51:56;;;;;;;3.33;1.88;;;;;;;;;;5089219;28;20044;-73
2023/02/08 05:54:27;;;;;;;5.30;1.80;;;;;;;;;;5090031;28;20054;-72
2023/02/08 05:56:56;;;;;;;4.82;1.90;;;;;;;;;;5089857;28;20040;-73
2023/02/08 05:59:27;;;;;;;3.40;1.80;;;;;;;;;;5089304;28;20744;-74
2023/02/08 06:01:58;;;;;;;6.35;1.90;;;;;;;;;;5090360;28;20040;-73
2023/02/08 06:04:29;;;;;;;5.63;1.95;;;;;;;;;;5089594;28;20051;-74
2023/02/08 06:07:00;;;;;;;5.45;1.98;;;;;;;;;;5089952;28;20502;-72
2023/02/08 06:09:29;;;;;;;8.18;1.83;;;;;;;;;;5089525;28;20048;-75
2023/02/08 06:12:00;;;;;;;2.42;1.83;;;;;;;;;;5089410;28;20407;-73
2023/02/08 06:14:31;;;;;;;6.68;2.17;;;;;;;;;;5089827;28;20494;-74
2023/02/08 06:17:13;;;;;;;4.28;2.10;;;;;;;;;;5089581;28;20051;-73
2023/02/08 06:19:43;;;;;;;3.03;1.80;;;;;;;;;;5089449;28;20052;-72
2023/02/08 06:22:13;;;;;;;6.18;1.95;;;;;;;;;;5089004;28;20064;-74
2023/02/08 06:24:49;;;;;;;9.25;2.75;;;;;;;;;;5089379;28;20048;-74
2023/02/08 06:27:22;;;;;;;5.50;1.83;;;;;;;;;;5089682;28;20520;-74
2023/02/08 06:29:53;;;;;;;3.13;2.03;;;;;;;;;;5089547;28;20521;-74
2023/02/08 06:32:22;;;;;;;4.43;2.10;;;;;;;;;;5089589;28;20047;-74
2023/02/08 06:34:53;;;;;;;2.78;2.00;;;;;;;;;;5104234;28;20409;-74
2023/02/08 06:37:24;;;;;;;3.33;2.20;;;;;;;;;;5089443;28;20397;-72
2023/02/08 06:39:56;;;;;;;4.20;2.15;;;;;;;;;;5088736;28;20048;-74
2023/02/08 06:42:26;;;;;;;4.95;1.90;;;;;;;;;;5088702;28;20632;-74
2023/02/08 06:44:57;;;;;;;3.75;1.77;;;;;;;;;;5088491;28;20061;-74
2023/02/08 06:47:29;;;;;;;2.78;2.00;;;;;;;;;;5088809;28;20048;-72
2023/02/08 06:49:59;;;;;;;5.32;1.98;;;;;;;;;;5089151;28;20047;-75
2023/02/08 06:52:29;;;;;;;5.03;2.05;;;;;;;;;;5088827;28;20059;-75
2023/02/08 06:55:00;;;;;;;3.90;1.98;;;;;;;;;;5089123;28;20048;-73
2023/02/08 06:57:30;;;;;;;6.47;1.90;;;;;;;;;;5089145;28;20387;-72
2023/02/08 07:00:02;;;;;;;9.05;2.30;;;;;;;;;;5088782;28;20494;-74
2023/02/08 07:02:32;;;;;;;2.70;1.85;;;;;;;;;;5088405;28;20036;-74
2023/02/08 07:05:02;;;;;;;3.63;2.15;;;;;;;;;;5088406;28;20052;-73
2023/02/08 07:07:33;;;;;;;3.38;2.05;;;;;;;;;;5088884;28;20040;-73
2023/02/08 07:10:04;;;;;;;5.40;2.20;;;;;;;;;;5089298;28;20052;-73
2023/02/08 07:12:36;;;;;;;7.78;2.30;;;;;;;;;;5088568;28;20055;-73
2023/02/08 07:15:07;;;;;;;4.80;2.10;;;;;;;;;;5088800;28;20055;-72
2023/02/08 07:17:37;;;;;;;5.60;2.15;;;;;;;;;;5088494;28;20043;-72
2023/02/08 07:20:08;;;;;;;3.47;2.38;;;;;;;;;;5087190;28;20048;-74
2023/02/08 07:22:39;;;;;;;4.70;1.90;;;;;;;;;;5088523;28;20047;-74
2023/02/08 07:25:28;;;;;;;5.95;2.30;;;;;;;;;;5088338;28;20067;-74
2023/02/08 07:28:07;;;;;;;7.85;2.03;;;;;;;;;;5088178;28;20532;-72
2023/02/08 07:30:38;;;;;;;3.80;2.05;;;;;;;;;;5087704;28;20048;-73
2023/02/08 07:33:09;;;;;;;3.05;2.10;;;;;;;;;;5087954;28;20040;-74
2023/02/08 07:35:39;;;;;;;4.22;2.22;;;;;;;;;;5087850;28;20036;-73
2023/02/08 07:38:10;;;;;;;3.30;2.13;;;;;;;;;;5088237;28;20055;-72
2023/02/08 07:40:42;;;;;;;3.97;2.13;;;;;;;;;;5103651;28;20517;-73
2023/02/08 07:43:14;;;;;;;4.70;2.20;;;;;;;;;;5070053;28;20052;-74
2023/02/08 07:45:54;;;;;;;4.78;1.90;;;;;;;;;;5103225;28;20060;-72
2023/02/08 07:48:25;;;;;;;3.55;2.38;;;;;;;;;;5087970;28;20498;-73
2023/02/08 07:51:02;;;;;;;3.50;2.00;;;;;;;;;;5087676;28;20052;-74
2023/02/08 07:53:33;;;;;;;4.45;2.25;;;;;;;;;;5088027;28;20441;-74
2023/02/08 07:56:05;;;;;;;4.68;2.38;;;;;;;;;;5087618;28;20055;-73
2023/02/08 07:58:57;;;;;;;5.30;2.20;;;;;;;;;;5086526;28;20494;-74
2023/02/08 08:01:27;;;;;;;8.25;2.40;;;;;;;;;;5076774;28;20055;-72
2023/02/08 08:03:58;;;;;;;7.00;2.50;;;;;;;;;;5087408;28;20044;-74
2023/02/08 08:06:54;;;;;;;6.82;2.30;;;;;;;;;;5087358;28;20071;-74
2023/02/08 08:09:24;;;;;;;4.72;2.10;;;;;;;;;;5069008;28;20048;-73
2023/02/08 08:11:55;;;;;;;5.60;1.90;;;;;;;;;;5087587;28;20052;-72
2023/02/08 08:14:25;;;;;;;4.60;2.70;;;;;;;;;;5086541;28;20044;-73
2023/02/08 08:16:57;;;;;;;3.58;2.00;;;;;;;;;;5087006;28;20055;-73
2023/02/08 08:19:28;;;;;;;2.75;1.90;;;;;;;;;;5087486;28;20044;-74
2023/02/08 08:21:57;;;;;;;3.17;2.03;;;;;;;;;;5087676;28;20509;-75
2023/02/08 08:24:30;;;;;;;4.50;2.40;;;;;;;;;;5086862;28;20052;-74
2023/02/08 08:27:08;;;;;;;5.25;2.08;;;;;;;;;;5087492;28;20040;-74
2023/02/08 08:29:39;;;;;;;6.10;2.33;;;;;;;;;;5087097;28;20490;-72
2023/02/08 08:32:08;;;;;;;8.70;2.60;;;;;;;;;;5069385;28;20055;-75
2023/02/08 08:34:40;;;;;;;5.55;2.40;;;;;;;;;;5068594;28;20059;-75
2023/02/08 08:37:10;;;;;;;2.70;2.30;;;;;;;;;;5086958;28;20044;-72
2023/02/08 08:39:41;;;;;;;8.50;2.70;;;;;;;;;;5086575;28;20051;-75
2023/02/08 08:42:11;;;;;;;3.63;2.42;;;;;;;;;;5087616;28;20051;-77
2023/02/08 08:44:41;;;;;;;5.50;2.35;;;;;;;;;;5086998;28;20040;-74
2023/02/08 08:47:11;;;;;;;5.20;2.25;;;;;;;;;;5086886;28;20122;-75
2023/02/08 08:49:53;;;;;;;14.00;2.63;;;;;;;;;;5070699;28;20048;-76
2023/02/08 08:52:23;;;;;;;7.25;2.38;;;;;;;;;;5086970;28;20055;-74
2023/02/08 08:54:56;;;;;;;4.57;2.50;;;;;;;;;;5087093;28;20051;-75
2023/02/08 08:57:26;;;;;;;7.63;2.25;;;;;;;;;;5086673;28;20062;-76
2023/02/08 09:00:04;;;;;;;3.17;2.03;;;;;;;;;;5087488;28;20506;-76
2023/02/08 09:02:35;;;;;;;6.43;2.20;;;;;;;;;;5086956;28;20048;-75
2023/02/08 09:05:06;;;;;;;5.10;2.30;;;;;;;;;;5087129;28;20154;-75
2023/02/08 09:07:37;;;;;;;5.90;2.65;;;;;;;;;;5086566;28;20048;-75
2023/02/08 09:10:07;;;;;;;5.72;2.30;;;;;;;;;;5086685;28;20505;-76
2023/02/08 09:12:38;;;;;;;3.53;2.40;;;;;;;;;;5086386;28;20051;-77
2023/02/08 09:15:28;;;;;;;11.52;2.65;;;;;;;;;;5086870;28;20067;-75
2023/02/08 09:17:58;;;;;;;3.08;2.30;;;;;;;;;;5086679;28;20048;-75
2023/02/08 09:20:28;;;;;;;6.18;3.00;;;;;;;;;;5084119;28;20056;-76
2023/02/08 09:23:00;;;;;;;5.88;2.53;;;;;;;;;;5086782;28;20098;-76
2023/02/08 09:25:32;;;;;;;7.30;3.08;;;;;;;;;;5087840;28;20044;-75
2023/02/08 09:28:02;;;;;;;9.95;2.67;;;;;;;;;;5090716;28;20052;-75
2023/02/08 09:30:33;;;;;;;7.50;3.60;;;;;;;;;;5090114;28;20051;-75
2023/02/08 09:33:04;;;;;;;7.45;2.58;;;;;;;;;;5090566;28;20051;-76
2023/02/08 09:35:34;;;;;;;6.63;2.70;;;;;;;;;;5090503;28;20048;-75
2023/02/08 09:38:04;;;;;;;9.90;2.67;;;;;;;;;;5090030;28;20055;-74
2023/02/08 09:41:12;;;;;;;5.68;2.70;;;;;;;;;;5090397;28;20044;-75
2023/02/08 09:44:00;;;;;;;5.15;2.92;;;;;;;;;;5090162;28;20036;-73
2023/02/08 09:46:35;;;;;;;6.20;2.72;;;;;;;;;;5090142;28;20063;-77
2023/02/08 09:49:14;;;;;;;5.38;3.38;;;;;;;;;;5090511;28;20048;-75
2023/02/08 09:52:01;;;;;;;4.00;2.88;;;;;;;;;;5089778;28;20426;-74
2023/02/08 09:54:38;;;;;;;4.00;2.42;;;;;;;;;;5089867;28;20067;-74
2023/02/08 09:57:17;;;;;;;9.48;2.90;;;;;;;;;;5089441;28;20055;-75
2023/02/08 10:00:00;;;;;;;12.65;2.90;;;;;;;;;;5071877;28;20426;-74
2023/02/08 10:02:34;;;;;;;5.30;2.20;;;;;;;;;;5092284;28;20063;-75
2023/02/08 10:05:09;;;;;;;7.13;2.78;;;;;;;;;;5089645;28;20044;-76
2023/02/08 10:07:42;;;;;;;5.78;2.53;;;;;;;;;;5090045;28;20048;-77
2023/02/08 10:10:40;;;;;;;5.88;2.67;;;;;;;;;;5092730;28;20051;-75
2023/02/08 10:13:37;;;;;;;6.05;2.63;;;;;;;;;;5090436;28;20047;-74
2023/02/08 10:16:25;;;;;;;10.32;3.13;;;;;;;;;;5089165;28;20060;-76
2023/02/08 10:19:22;;;;;;;6.22;2.45;;;;;;;;;;5090019;28;20402;-74
2023/02/08 10:22:08;;;;;;;11.20;2.42;;;;;;;;;;5089597;28;20088;-74
2023/02/08 10:24:52;;;;;;;12.13;2.13;;;;;;;;;;5089318;28;20055;-75
2023/02/08 10:27:37;;;;;;;9.82;1.63;;;;;;;;;;5071396;28;20044;-75
2023/02/08 10:30:42;;;;;;;16.58;2.47;;;;;;;;;;5088209;28;20513;-77
2023/02/08 10:33:25;;;;;;;9.13;2.35;;;;;;;;;;5071546;28;20048;-77
2023/02/08 10:35:57;;;;;;;17.45;2.97;;;;;;;;;;5090170;28;20066;-77
2023/02/08 10:38:31;;;;;;;6.45;2.22;;;;;;;;;;5087889;28;20391;-78
2023/02/08 10:41:19;;;;;;;11.48;2.00;;;;;;;;;;5089511;28;20047;-77
2023/02/08 10:44:13;;;;;;;9.38;1.73;;;;;;;;;;5089206;28;20078;-76
2023/02/08 10:46:50;;;;;;;10.90;1.75;;;;;;;;;;5088670;28;20410;-76
2023/02/08 10:49:51;;;;;;;16.88;1.90;;;;;;;;;;5088789;28;20044;-77
2023/02/08 10:52:21;;;;;;;9.82;1.80;;;;;;;;;;5063833;28;20060;-76
2023/02/08 10:55:17;;;;;;;11.18;1.63;;;;;;;;;;5088274;28;20063;-77
2023/02/08 10:57:52;;;;;;;12.27;1.50;;;;;;;;;;5088949;28;20509;-75
2023/02/08 11:00:28;;;;;;;;;;;;;;;;;;5071362;28;20048;-75
2023/02/08 11:03:03;;;;;;;4.80;1.10;;;;;;;;;;5079026;28;19923;-76
2023/02/08 11:05:36;;;;;;;18.38;2.03;;;;;;;;;;5098886;28;20509;-76
2023/02/08 11:08:09;;;;;;;8.25;1.25;;;;;;;;;;5101426;28;20063;-78
2023/02/08 11:10:42;;;;;;;5.28;1.10;;;;;;;;;;5108787;28;20047;-78
2023/02/08 11:13:12;;;;;;;8.25;1.40;;;;;;;;;;5108838;28;20079;-76
2023/02/08 11:15:47;;;;;;;8.32;1.40;;;;;;;;;;5091163;28;20046;-76
2023/02/08 11:18:30;;;;;;;6.75;1.70;;;;;;;;;;5107494;28;20046;-79
2023/02/08 11:21:10;;;;;;;11.27;1.63;;;;;;;;;;5088509;28;20048;-76
2023/02/08 11:23:42;;;;;;;10.60;1.90;;;;;;;;;;5088889;28;20403;-79
2023/02/08 11:26:23;;;;;;;13.23;1.50;;;;;;;;;;5092373;28;20097;-77
2023/02/08 11:29:14;;;;;;;11.45;1.75;;;;;;;;;;5087881;28;20051;-78
2023/02/08 11:32:22;;;;;;;11.15;1.55;;;;;;;;;;5087498;28;20074;-79
2023/02/08 11:35:21;;;;;;;6.15;1.20;;;;;;;;;;5087610;28;20052;-80
2023/02/08 11:37:56;;;;;;;6.28;1.50;;;;;;;;;;5086770;28;20059;-78
2023/02/08 11:40:30;;;;;;;5.03;1.35;;;;;;;;;;5087353;28;20048;-78
2023/02/08 11:43:00;;;;;;;9.45;3.08;;;;;;;;;;5087883;28;20055;-80
2023/02/08 11:45:36;;;;;;;5.78;1.25;;;;;;;;;;5052521;28;20142;-78
2023/02/08 11:48:24;;;;;;;4.05;1.23;;;;;;;;;;5087885;28;20040;-83
2023/02/08 11:50:59;;;;;;;5.68;1.23;;;;;;;;;;5087603;28;20406;-78
2023/02/08 11:53:48;;;;;;;5.25;1.70;;;;;;;;;;5087256;28;20048;-76
2023/02/08 11:56:22;;;;;;;6.03;1.20;;;;;;;;;;5087701;28;20055;-78
2023/02/08 11:59:23;;;;;;;6.97;1.52;;;;;;;;;;5088424;28;20044;-78
2023/02/08 12:01:54;;;;;;;;;;;;;;;;;;5087806;28;20039;-80
2023/02/08 12:04:25;;;;;;;2.55;1.20;;;;;;;;;;5069639;28;20378;-77
2023/02/08 12:07:26;;;;;;;9.35;1.55;;;;;;;;;;5087908;28;20407;-79
2023/02/08 12:09:55;;;;;;;;;;;;;;;;;;5070412;28;20066;-77
2023/02/08 12:12:46;;;;;;;4.40;1.10;;;;;;;;;;5088203;28;20401;-77
2023/02/08 12:15:22;;;;;;;4.40;1.05;;;;;;;;;;5087772;28;20055;-77
2023/02/08 12:18:26;;;;;;;4.32;1.42;;;;;;;;;;5087216;28;20044;-79
2023/02/08 12:21:11;;;;;;;4.68;1.50;;;;;;;;;;5069375;28;20518;-76
2023/02/08 12:23:50;;;;;;;3.15;1.02;;;;;;;;;;5087623;28;20510;-78
2023/02/08 12:26:40;;;;;;;3.70;1.02;;;;;;;;;;5087213;28;20051;-78
2023/02/08 12:29:44;;;;;;;4.55;1.33;;;;;;;;;;5087383;28;20043;-76
2023/02/08 12:32:37;;;;;;;5.88;1.45;;;;;;;;;;5086513;28;20529;-77
2023/02/08 12:35:47;;;;;;;4.95;1.15;;;;;;;;;;5087087;28;20040;-78
2023/02/08 12:41:51;;;;;;;7.40;1.30;;;;;;;;;;5087397;28;21010;-78
2023/02/08 12:44:45;;;;;;;6.22;1.52;;;;;;;;;;5086772;28;20048;-79
2023/02/08 12:47:35;;;;;;;5.50;1.40;;;;;;;;;;5086961;28;20039;-77
2023/02/08 12:50:31;;;;;;;6.53;1.27;;;;;;;;;;5087091;28;20044;-77
2023/02/08 12:53:21;;;;;;;3.63;1.40;;;;;;;;;;5086583;28;20415;-79
2023/02/08 12:55:55;;;;;;;1.98;1.02;;;;;;;;;;5086639;28;20399;-79
2023/02/08 12:58:41;;;;;;;7.15;1.40;;;;;;;;;;5086932;28;20052;-78
2023/02/08 13:01:17;;;;;;;5.80;1.55;;;;;;;;;;5085985;28;20047;-77
2023/02/08 13:04:11;;;;;;;4.97;1.50;;;;;;;;;;5087398;28;20051;-78
2023/02/08 13:07:02;;;;;;;7.07;1.65;;;;;;;;;;5087028;28;20058;-76
2023/02/08 13:09:33;;;;;;;4.32;1.25;;;;;;;;;;5087048;28;20055;-78
2023/02/08 13:12:07;;;;;;;5.15;1.50;;;;;;;;;;5087608;28;20078;-77
2023/02/08 13:15:23;;;;;;;2.90;1.33;;;;;;;;;;5087629;28;20538;-75
2023/02/08 13:18:10;;;;;;;9.13;1.55;;;;;;;;;;5067733;28;20052;-78
2023/02/08 13:20:52;;;;;;;4.45;1.50;;;;;;;;;;5086190;28;20051;-77
2023/02/08 13:23:39;;;;;;;7.20;1.42;;;;;;;;;;5086672;28;20043;-78
2023/02/08 13:26:25;;;;;;;5.82;1.42;;;;;;;;;;5086511;28;20047;-77
2023/02/08 13:29:03;;;;;;;5.88;1.30;;;;;;;;;;5086987;28;20044;-76
2023/02/08 13:31:40;;;;;;;3.47;1.33;;;;;;;;;;5086620;28;20048;-78
2023/02/08 13:34:37;;;;;;;7.75;1.63;;;;;;;;;;5087071;28;20545;-78
2023/02/08 13:37:26;;;;;;;3.50;1.30;;;;;;;;;;5086414;28;20052;-77
2023/02/08 13:40:08;;;;;;;6.50;1.65;;;;;;;;;;5086297;28;20052;-79
2023/02/08 13:42:46;;;;;;;5.55;1.63;;;;;;;;;;5086339;28;20487;-75
2023/02/08 13:45:42;;;;;;;4.85;1.40;;;;;;;;;;5086049;28;20067;-76
2023/02/08 13:48:15;;;;;;;3.60;1.60;;;;;;;;;;5086465;28;20044;-76
2023/02/08 13:50:53;;;;;;;5.32;1.38;;;;;;;;;;5086390;28;20747;-76
2023/02/08 13:53:40;;;;;;;4.82;1.50;;;;;;;;;;5086361;28;20048;-79
2023/02/08 13:56:32;;;;;;;4.63;1.65;;;;;;;;;;5085173;28;20067;-78
2023/02/08 13:59:05;;;;;;;7.53;1.48;;;;;;;;;;5085762;28;20044;-78
2023/02/08 14:01:56;;;;;;;5.18;1.60;;;;;;;;;;5086820;28;20044;-78
2023/02/08 14:04:33;;;;;;;7.45;1.50;;;;;;;;;;5086945;28;20048;-76
2023/02/08 14:07:23;;;;;;;2.55;1.48;;;;;;;;;;5087798;28;20056;-79
2023/02/08 14:10:03;;;;;;;4.18;1.60;;;;;;;;;;5069279;28;20048;-78
2023/02/08 14:12:39;;;;;;;6.97;1.75;;;;;;;;;;5087621;28;20531;-77
2023/02/08 14:15:16;;;;;;;6.75;1.48;;;;;;;;;;5090394;28;20055;-78
2023/02/08 14:17:58;;;;;;;4.15;1.48;;;;;;;;;;5090472;28;20052;-77
2023/02/08 14:20:39;;;;;;;3.70;1.60;;;;;;;;;;5089308;28;20055;-78
2023/02/08 14:23:26;;;;;;;4.30;1.42;;;;;;;;;;5090553;28;20044;-77
2023/02/08 14:26:24;;;;;;;;;;;;;;;;;;;;;
2023/02/08 14:28:58;;;;;;;6.68;1.38;;;;;;;;;;5088294;28;20067;-78
2023/02/08 14:31:42;;;;;;;6.30;1.90;;;;;;;;;;5072312;28;20055;-78
2023/02/08 14:34:34;;;;;;;4.70;1.58;;;;;;;;;;5089572;28;20048;-78
2023/02/08 14:37:12;;;;;;;3.55;1.23;;;;;;;;;;5089532;28;20052;-80
2023/02/08 14:39:42;;;;;;;5.80;1.33;;;;;;;;;;5089791;28;20491;-80
2023/02/08 14:42:13;;;;;;;3.40;1.60;;;;;;;;;;5089166;28;20047;-79
2023/02/08 14:44:47;;;;;;;5.82;1.70;;;;;;;;;;5089073;28;20040;-76
2023/02/08 14:47:27;;;;;;;2.60;1.42;;;;;;;;;;5070223;28;20055;-78
2023/02/08 14:50:19;;;;;;;2.70;1.38;;;;;;;;;;5089072;28;20056;-77
2023/02/08 14:52:59;;;;;;;4.18;1.60;;;;;;;;;;5089938;28;20047;-80
2023/02/08 14:55:44;;;;;;;6.85;2.10;;;;;;;;;;5089361;28;20047;-79
2023/02/08 14:58:31;;;;;;;4.47;1.60;;;;;;;;;;5090032;28;20059;-80
2023/02/08 15:01:24;;;;;;;5.65;1.73;;;;;;;;;;5088776;28;20067;-79
2023/02/08 15:03:58;;;;;;;6.30;1.60;;;;;;;;;;5073476;28;20052;-78
2023/02/08 15:06:39;;;;;;;10.95;1.73;;;;;;;;;;5089975;28;20040;-80
2023/02/08 15:09:16;;;;;;;5.30;1.63;;;;;;;;;;5071032;28;20056;-77
2023/02/08 15:11:58;;;;;;;6.93;1.67;;;;;;;;;;5089944;28;20048;-77
2023/02/08 15:14:33;;;;;;;5.30;1.60;;;;;;;;;;5089107;28;20052;-82
2023/02/08 15:17:03;;;;;;;7.47;1.42;;;;;;;;;;5088415;28;20059;-83
2023/02/08 15:19:37;;;;;;;5.30;1.63;;;;;;;;;;5089190;28;20040;-78
2023/02/08 15:22:27;;;;;;;6.18;1.70;;;;;;;;;;5090025;28;20036;-80
2023/02/08 15:25:01;;;;;;;5.68;1.60;;;;;;;;;;5088771;28;20040;-76
2023/02/08 15:27:33;;;;;;;4.78;1.80;;;;;;;;;;5087986;28;20055;-80
2023/02/08 15:30:07;;;;;;;3.45;1.67;;;;;;;;;;5088760;28;20067;-81
2023/02/08 15:32:46;;;;;;;5.45;1.60;;;;;;;;;;5089186;28;20044;-79
2023/02/08 15:35:22;;;;;;;5.68;1.30;;;;;;;;;;5090124;28;20067;-80
2023/02/08 15:37:57;;;;;;;5.28;1.42;;;;;;;;;;5055912;28;20059;-79
2023/02/08 15:40:32;;;;;;;12.27;1.90;;;;;;;;;;5089417;28;20048;-77
2023/02/08 15:43:08;;;;;;;10.10;1.95;;;;;;;;;;5071276;28;20044;-76
2023/02/08 15:45:39;;;;;;;14.85;2.10;;;;;;;;;;5088764;28;20056;-76
2023/02/08 15:48:11;;;;;;;7.68;1.45;;;;;;;;;;5089943;28;20048;-77
2023/02/08 15:50:42;;;;;;;11.55;1.65;;;;;;;;;;5089100;28;20051;-75